Time,TemperatureF,DewpointF,PressureIn,WindDirection,WindDirectionDegrees,WindSpeedMPH,WindSpeedGustMPH,Humidity,HourlyPrecipIn,Conditions,Clouds,dailyrainin,SoftwareType,DateUTC
2013-07-30 00:00:00,71.7,61.0,29.99,SW,227,3.0,3.0,69,0.00,,,0.00,Wunderground v.1.15,2013-07-30 04:00:00,
2013-07-30 00:05:00,71.8,61.1,29.99,WNW,299,4.0,4.0,69,0.00,,,0.00,Wunderground v.1.15,2013-07-30 04:05:00,
2013-07-30 00:10:00,71.9,61.6,29.98,SW,236,4.0,5.0,70,0.00,,,0.00,Wunderground v.1.15,2013-07-30 04:10:00,
2013-07-30 00:15:00,71.9,62.0,29.98,WNW,297,4.0,5.0,71,0.00,,,0.00,Wunderground v.1.15,2013-07-30 04:15:00,
2013-07-30 00:20:00,71.9,62.4,29.98,NNW,335,3.0,6.0,72,0.00,,,0.00,Wunderground v.1.15,2013-07-30 04:20:00,
2013-07-30 00:30:00,71.7,63.0,29.98,NW,306,3.0,3.0,74,0.00,,,0.00,Wunderground v.1.15,2013-07-30 04:30:00,
2013-07-30 00:40:00,71.4,63.1,29.98,North,351,3.0,3.0,75,0.00,,,0.00,Wunderground v.1.15,2013-07-30 04:40:00,
2013-07-30 00:45:00,71.5,63.5,29.98,WSW,245,4.0,4.0,76,0.00,,,0.00,Wunderground v.1.15,2013-07-30 04:45:00,
2013-07-30 00:50:00,71.5,64.3,29.98,North,360,4.0,4.0,78,0.00,,,0.00,Wunderground v.1.15,2013-07-30 04:50:00,
2013-07-30 01:00:00,71.3,63.3,29.98,NNW,342,4.0,4.0,76,0.00,,,0.00,Wunderground v.1.15,2013-07-30 05:00:00,
2013-07-30 01:10:00,71.5,61.6,29.98,North,6,4.0,5.0,71,0.00,,,0.00,Wunderground v.1.15,2013-07-30 05:10:00,
2013-07-30 01:20:00,71.7,62.2,29.98,WNW,287,5.0,5.0,72,0.00,,,0.00,Wunderground v.1.15,2013-07-30 05:20:00,
2013-07-30 01:30:00,71.7,62.2,29.99,North,2,5.0,5.0,72,0.00,,,0.00,Wunderground v.1.15,2013-07-30 05:30:00,
2013-07-30 01:40:00,71.5,62.0,29.99,North,6,5.0,5.0,72,0.00,,,0.00,Wunderground v.1.15,2013-07-30 05:40:00,
2013-07-30 01:50:00,71.2,61.7,29.99,North,4,5.0,9.0,72,0.00,,,0.00,Wunderground v.1.15,2013-07-30 05:50:00,
2013-07-30 02:00:00,71.0,60.7,29.98,WNW,295,6.0,6.0,70,0.00,,,0.00,Wunderground v.1.15,2013-07-30 06:00:00,
2013-07-30 02:10:00,70.9,61.0,29.98,NW,319,4.0,5.0,71,0.00,,,0.00,Wunderground v.1.15,2013-07-30 06:10:00,
2013-07-30 02:20:00,70.6,59.1,29.98,South,182,3.0,3.0,67,0.00,,,0.00,Wunderground v.1.15,2013-07-30 06:20:00,
2013-07-30 02:30:00,70.4,59.7,29.98,North,360,3.0,4.0,69,0.00,,,0.00,Wunderground v.1.15,2013-07-30 06:30:00,
2013-07-30 02:40:00,70.2,60.0,29.98,NNE,27,3.0,3.0,70,0.00,,,0.00,Wunderground v.1.15,2013-07-30 06:40:00,
2013-07-30 02:50:00,70.1,59.9,29.98,NNW,334,3.0,4.0,70,0.00,,,0.00,Wunderground v.1.15,2013-07-30 06:50:00,
2013-07-30 03:00:00,69.9,59.7,29.98,SW,221,3.0,3.0,70,0.00,,,0.00,Wunderground v.1.15,2013-07-30 07:00:00,
2013-07-30 03:10:00,69.8,59.2,29.98,North,358,3.0,4.0,69,0.00,,,0.00,Wunderground v.1.15,2013-07-30 07:10:00,
2013-07-30 03:20:00,69.6,59.8,29.99,WNW,299,2.0,2.0,71,0.00,,,0.00,Wunderground v.1.15,2013-07-30 07:20:00,
2013-07-30 03:30:00,69.5,59.7,29.99,NNW,333,3.0,4.0,71,0.00,,,0.00,Wunderground v.1.15,2013-07-30 07:30:00,
2013-07-30 03:40:00,69.3,59.1,30.00,NW,326,2.0,3.0,70,0.00,,,0.00,Wunderground v.1.15,2013-07-30 07:40:00,
2013-07-30 03:50:00,69.1,60.1,30.00,NNW,347,2.0,2.0,73,0.00,,,0.00,Wunderground v.1.15,2013-07-30 07:50:00,
2013-07-30 04:00:00,68.8,59.4,30.00,NW,316,2.0,2.0,72,0.00,,,0.00,Wunderground v.1.15,2013-07-30 08:00:00,
2013-07-30 04:10:00,68.8,59.4,30.00,North,355,2.0,4.0,72,0.00,,,0.00,Wunderground v.1.15,2013-07-30 08:10:00,
2013-07-30 04:20:00,69.0,59.2,30.00,NNE,28,2.0,4.0,71,0.00,,,0.00,Wunderground v.1.15,2013-07-30 08:20:00,
2013-07-30 04:30:00,69.1,58.9,30.00,NE,37,2.0,2.0,70,0.00,,,0.00,Wunderground v.1.15,2013-07-30 08:30:00,
2013-07-30 04:40:00,69.3,58.3,30.01,NNW,328,2.0,2.0,68,0.00,,,0.00,Wunderground v.1.15,2013-07-30 08:40:00,
2013-07-30 04:50:00,69.1,58.9,30.01,NW,316,2.0,2.0,70,0.00,,,0.00,Wunderground v.1.15,2013-07-30 08:50:00,
2013-07-30 05:00:00,68.6,58.8,30.01,North,4,3.0,3.0,71,0.00,,,0.00,Wunderground v.1.15,2013-07-30 09:00:00,
2013-07-30 05:10:00,68.7,58.1,30.01,NNE,13,2.0,2.0,69,0.00,,,0.00,Wunderground v.1.15,2013-07-30 09:10:00,
2013-07-30 05:20:00,68.8,58.6,30.01,NNE,21,4.0,4.0,70,0.00,,,0.00,Wunderground v.1.15,2013-07-30 09:20:00,
2013-07-30 05:30:00,68.6,58.4,30.01,NNE,12,4.0,4.0,70,0.00,,,0.00,Wunderground v.1.15,2013-07-30 09:30:00,
2013-07-30 05:40:00,68.6,58.4,30.01,NNE,29,3.0,3.0,70,0.00,,,0.00,Wunderground v.1.15,2013-07-30 09:40:00,
2013-07-30 05:50:00,68.6,58.8,30.01,North,357,4.0,8.0,71,0.00,,,0.00,Wunderground v.1.15,2013-07-30 09:50:00,
2013-07-30 06:00:00,68.6,58.8,30.02,NNE,19,5.0,5.0,71,0.00,,,0.00,Wunderground v.1.15,2013-07-30 10:00:00,
2013-07-30 06:10:00,68.6,58.0,30.02,NNW,331,5.0,6.0,69,0.00,,,0.00,Wunderground v.1.15,2013-07-30 10:10:00,
2013-07-30 06:20:00,68.6,58.8,30.02,NNE,12,4.0,4.0,71,0.00,,,0.00,Wunderground v.1.15,2013-07-30 10:20:00,
2013-07-30 06:30:00,68.4,59.0,30.02,NW,313,4.0,4.0,72,0.00,,,0.00,Wunderground v.1.15,2013-07-30 10:30:00,
2013-07-30 06:40:00,68.3,59.3,30.02,North,1,4.0,7.0,73,0.00,,,0.00,Wunderground v.1.15,2013-07-30 10:40:00,
2013-07-30 06:50:00,68.1,58.7,30.03,NNE,15,4.0,5.0,72,0.00,,,0.00,Wunderground v.1.15,2013-07-30 10:50:00,
2013-07-30 07:00:00,68.1,58.3,30.03,NNW,334,4.0,4.0,71,0.00,,,0.00,Wunderground v.1.15,2013-07-30 11:00:00,
2013-07-30 07:10:00,68.1,58.7,30.03,North,8,4.0,4.0,72,0.00,,,0.00,Wunderground v.1.15,2013-07-30 11:10:00,
2013-07-30 07:20:00,68.4,58.6,30.03,NW,308,3.0,3.0,71,0.00,,,0.00,Wunderground v.1.15,2013-07-30 11:20:00,
2013-07-30 07:30:00,68.4,58.6,30.04,NNW,341,4.0,4.0,71,0.00,,,0.00,Wunderground v.1.15,2013-07-30 11:30:00,
2013-07-30 07:40:00,68.5,58.7,30.04,NNW,345,4.0,5.0,71,0.00,,,0.00,Wunderground v.1.15,2013-07-30 11:40:00,
2013-07-30 07:50:00,68.8,57.8,30.04,NNW,331,4.0,4.0,68,0.00,,,0.00,Wunderground v.1.15,2013-07-30 11:50:00,
2013-07-30 08:00:00,68.9,58.3,30.04,North,10,5.0,8.0,69,0.00,,,0.00,Wunderground v.1.15,2013-07-30 12:00:00,
2013-07-30 08:10:00,69.0,58.8,30.04,WNW,299,5.0,6.0,70,0.00,,,0.00,Wunderground v.1.15,2013-07-30 12:10:00,
2013-07-30 08:20:00,69.0,58.4,30.04,NNW,337,4.0,4.0,69,0.00,,,0.00,Wunderground v.1.15,2013-07-30 12:20:00,
2013-07-30 08:30:00,69.1,58.5,30.05,SE,136,4.0,4.0,69,0.00,,,0.00,Wunderground v.1.15,2013-07-30 12:30:00,
2013-07-30 08:40:00,69.2,59.0,30.05,NNW,345,4.0,4.0,70,0.00,,,0.00,Wunderground v.1.15,2013-07-30 12:40:00,
2013-07-30 08:50:00,69.1,58.9,30.05,NNW,334,4.0,4.0,70,0.00,,,0.00,Wunderground v.1.15,2013-07-30 12:50:00,
2013-07-30 09:00:00,69.2,59.0,30.05,North,358,5.0,6.0,70,0.00,,,0.00,Wunderground v.1.15,2013-07-30 13:00:00,
2013-07-30 09:10:00,69.2,59.0,30.05,North,4,5.0,10.0,70,0.00,,,0.00,Wunderground v.1.15,2013-07-30 13:10:00,
2013-07-30 09:20:00,69.2,59.0,30.05,North,349,4.0,5.0,70,0.00,,,0.00,Wunderground v.1.15,2013-07-30 13:20:00,
2013-07-30 09:30:00,69.4,59.2,30.05,NNE,19,4.0,5.0,70,0.00,,,0.00,Wunderground v.1.15,2013-07-30 13:30:00,
2013-07-30 09:40:00,69.5,59.3,30.05,NNW,334,4.0,4.0,70,0.00,,,0.00,Wunderground v.1.15,2013-07-30 13:40:00,
2013-07-30 09:50:00,69.5,59.7,30.05,NNW,343,4.0,6.0,71,0.00,,,0.00,Wunderground v.1.15,2013-07-30 13:50:00,
2013-07-30 10:00:00,69.7,59.5,30.05,NE,40,4.0,5.0,70,0.00,,,0.00,Wunderground v.1.15,2013-07-30 14:00:00,
2013-07-30 10:10:00,69.9,60.5,30.05,NNE,31,5.0,5.0,72,0.00,,,0.00,Wunderground v.1.15,2013-07-30 14:10:00,
2013-07-30 10:20:00,70.1,59.9,30.05,NNW,347,4.0,5.0,70,0.00,,,0.00,Wunderground v.1.15,2013-07-30 14:20:00,
2013-07-30 10:30:00,70.2,60.4,30.06,West,266,4.0,4.0,71,0.00,,,0.00,Wunderground v.1.15,2013-07-30 14:30:00,
2013-07-30 10:40:00,70.3,60.8,30.05,NNE,12,4.0,7.0,72,0.00,,,0.00,Wunderground v.1.15,2013-07-30 14:40:00,
2013-07-30 10:50:00,70.6,60.7,30.05,North,11,3.0,3.0,71,0.00,,,0.00,Wunderground v.1.15,2013-07-30 14:50:00,
2013-07-30 11:00:00,70.8,61.3,30.05,NNW,347,3.0,6.0,72,0.00,,,0.00,Wunderground v.1.15,2013-07-30 15:00:00,
2013-07-30 11:10:00,71.1,61.6,30.05,NW,324,4.0,4.0,72,0.00,,,0.00,Wunderground v.1.15,2013-07-30 15:10:00,
2013-07-30 11:20:00,71.2,61.7,30.05,WSW,255,3.0,8.0,72,0.00,,,0.00,Wunderground v.1.15,2013-07-30 15:20:00,
2013-07-30 11:30:00,71.5,62.8,30.05,North,351,3.0,4.0,74,0.00,,,0.00,Wunderground v.1.15,2013-07-30 15:30:00,
2013-07-30 11:40:00,71.8,62.3,30.05,NW,324,4.0,4.0,72,0.00,,,0.00,Wunderground v.1.15,2013-07-30 15:40:00,
2013-07-30 11:50:00,72.0,62.9,30.05,ENE,64,3.0,5.0,73,0.00,,,0.00,Wunderground v.1.15,2013-07-30 15:50:00,
2013-07-30 12:00:00,72.1,62.6,30.04,NNE,12,4.0,5.0,72,0.00,,,0.00,Wunderground v.1.15,2013-07-30 16:00:00,
2013-07-30 12:10:00,72.4,63.3,30.04,West,271,4.0,4.0,73,0.00,,,0.00,Wunderground v.1.15,2013-07-30 16:10:00,
2013-07-30 12:20:00,72.6,62.7,30.04,North,6,3.0,4.0,71,0.00,,,0.00,Wunderground v.1.15,2013-07-30 16:20:00,
2013-07-30 12:30:00,72.9,62.9,30.03,North,353,3.0,6.0,71,0.00,,,0.00,Wunderground v.1.15,2013-07-30 16:30:00,
2013-07-30 12:40:00,73.3,62.9,30.04,WSW,250,4.0,4.0,70,0.00,,,0.00,Wunderground v.1.15,2013-07-30 16:40:00,
2013-07-30 12:50:00,73.7,62.9,30.04,NNE,33,3.0,3.0,69,0.00,,,0.00,Wunderground v.1.15,2013-07-30 16:50:00,
2013-07-30 13:00:00,74.3,64.3,30.04,WNW,285,4.0,4.0,71,0.00,,,0.00,Wunderground v.1.15,2013-07-30 17:00:00,
2013-07-30 13:10:00,74.5,63.2,30.03,West,270,4.0,4.0,68,0.00,,,0.00,Wunderground v.1.15,2013-07-30 17:10:00,
2013-07-30 13:20:00,75.0,63.3,30.03,SW,214,4.0,4.0,67,0.00,,,0.00,Wunderground v.1.15,2013-07-30 17:20:00,
2013-07-30 13:30:00,75.3,62.3,30.03,West,279,4.0,4.0,64,0.00,,,0.00,Wunderground v.1.15,2013-07-30 17:30:00,
2013-07-30 13:40:00,75.5,62.9,30.03,North,6,5.0,5.0,65,0.00,,,0.00,Wunderground v.1.15,2013-07-30 17:40:00,
2013-07-30 13:50:00,76.1,63.5,30.03,NNW,333,4.0,11.0,65,0.00,,,0.00,Wunderground v.1.15,2013-07-30 17:50:00,
2013-07-30 14:00:00,76.3,64.1,30.03,North,4,4.0,4.0,66,0.00,,,0.00,Wunderground v.1.15,2013-07-30 18:00:00,
2013-07-30 14:10:00,76.3,63.7,30.03,North,8,4.0,6.0,65,0.00,,,0.00,Wunderground v.1.15,2013-07-30 18:10:00,
2013-07-30 14:20:00,76.4,63.8,30.02,WSW,255,4.0,6.0,65,0.00,,,0.00,Wunderground v.1.15,2013-07-30 18:20:00,
2013-07-30 14:30:00,76.7,63.2,30.02,NNW,328,4.0,4.0,63,0.00,,,0.00,Wunderground v.1.15,2013-07-30 18:30:00,
2013-07-30 14:40:00,77.0,63.4,30.02,SSW,195,4.0,4.0,63,0.00,,,0.00,Wunderground v.1.15,2013-07-30 18:40:00,
2013-07-30 14:50:00,76.7,62.2,30.02,SE,126,4.0,4.0,61,0.00,,,0.00,Wunderground v.1.15,2013-07-30 18:50:00,
2013-07-30 15:00:00,77.2,63.6,30.02,West,274,4.0,4.0,63,0.00,,,0.00,Wunderground v.1.15,2013-07-30 19:00:00,
2013-07-30 15:10:00,77.8,63.3,30.02,WSW,250,4.0,5.0,61,0.00,,,0.00,Wunderground v.1.15,2013-07-30 19:10:00,
2013-07-30 15:20:00,77.7,63.2,30.02,West,269,4.0,4.0,61,0.00,,,0.00,Wunderground v.1.15,2013-07-30 19:20:00,
2013-07-30 15:30:00,77.5,63.0,30.01,NW,325,4.0,4.0,61,0.00,,,0.00,Wunderground v.1.15,2013-07-30 19:30:00,
2013-07-30 15:40:00,77.8,62.3,30.01,NE,35,4.0,5.0,59,0.00,,,0.00,Wunderground v.1.15,2013-07-30 19:40:00,
2013-07-30 15:50:00,77.6,62.6,30.01,North,358,4.0,4.0,60,0.00,,,0.00,Wunderground v.1.15,2013-07-30 19:50:00,
2013-07-30 16:00:00,77.5,63.0,30.01,NNW,328,3.0,4.0,61,0.00,,,0.00,Wunderground v.1.15,2013-07-30 20:00:00,
2013-07-30 16:10:00,77.5,62.0,30.00,NNW,348,3.0,3.0,59,0.00,,,0.00,Wunderground v.1.15,2013-07-30 20:10:00,
2013-07-30 16:20:00,77.9,63.4,30.00,West,265,3.0,3.0,61,0.00,,,0.00,Wunderground v.1.15,2013-07-30 20:20:00,
2013-07-30 16:30:00,77.5,63.5,30.00,NNW,333,3.0,5.0,62,0.00,,,0.00,Wunderground v.1.15,2013-07-30 20:30:00,
2013-07-30 16:40:00,77.5,62.5,30.00,WNW,301,3.0,3.0,60,0.00,,,0.00,Wunderground v.1.15,2013-07-30 20:40:00,
2013-07-30 16:50:00,78.0,61.5,30.00,NW,308,3.0,3.0,57,0.00,,,0.00,Wunderground v.1.15,2013-07-30 20:50:00,
2013-07-30 17:00:00,78.6,62.1,30.00,NW,313,3.0,7.0,57,0.00,,,0.00,Wunderground v.1.15,2013-07-30 21:00:00,
2013-07-30 17:10:00,78.7,62.7,30.00,WNW,291,3.0,3.0,58,0.00,,,0.00,Wunderground v.1.15,2013-07-30 21:10:00,
2013-07-30 17:20:00,78.6,62.6,30.00,West,272,3.0,3.0,58,0.00,,,0.00,Wunderground v.1.15,2013-07-30 21:20:00,
2013-07-30 17:30:00,78.1,62.1,29.99,NNE,12,2.0,2.0,58,0.00,,,0.00,Wunderground v.1.15,2013-07-30 21:30:00,
2013-07-30 17:40:00,77.9,62.4,30.00,NNE,25,3.0,3.0,59,0.00,,,0.00,Wunderground v.1.15,2013-07-30 21:40:00,
2013-07-30 17:50:00,78.2,61.2,30.00,NNW,331,2.0,2.0,56,0.00,,,0.00,Wunderground v.1.15,2013-07-30 21:50:00,
2013-07-30 18:00:00,78.0,61.5,30.00,SE,140,3.0,3.0,57,0.00,,,0.00,Wunderground v.1.15,2013-07-30 22:00:00,
2013-07-30 18:10:00,77.3,60.9,30.00,NW,326,3.0,3.0,57,0.00,,,0.00,Wunderground v.1.15,2013-07-30 22:10:00,
2013-07-30 18:20:00,76.5,61.6,30.00,West,273,3.0,3.0,60,0.00,,,0.00,Wunderground v.1.15,2013-07-30 22:20:00,
2013-07-30 18:30:00,75.8,61.4,30.01,WSW,255,3.0,5.0,61,0.00,,,0.00,Wunderground v.1.15,2013-07-30 22:30:00,
2013-07-30 18:40:00,75.3,60.9,30.01,SSW,200,3.0,3.0,61,0.00,,,0.00,Wunderground v.1.15,2013-07-30 22:40:00,
2013-07-30 18:50:00,74.9,61.0,30.01,SW,215,3.0,3.0,62,0.00,,,0.00,Wunderground v.1.15,2013-07-30 22:50:00,
2013-07-30 19:00:00,74.4,60.5,30.02,West,273,3.0,3.0,62,0.00,,,0.00,Wunderground v.1.15,2013-07-30 23:00:00,
2013-07-30 19:10:00,74.0,60.2,30.02,NNW,335,3.0,3.0,62,0.00,,,0.00,Wunderground v.1.15,2013-07-30 23:10:00,
2013-07-30 19:20:00,73.7,59.4,30.02,WSW,250,3.0,4.0,61,0.00,,,0.00,Wunderground v.1.15,2013-07-30 23:20:00,
2013-07-30 19:30:00,73.6,59.3,30.02,NW,314,3.0,4.0,61,0.00,,,0.00,Wunderground v.1.15,2013-07-30 23:30:00,
2013-07-30 19:40:00,73.7,60.8,30.02,West,260,3.0,3.0,64,0.00,,,0.00,Wunderground v.1.15,2013-07-30 23:40:00,
2013-07-30 19:50:00,73.7,61.6,30.02,SSW,213,2.0,3.0,66,0.00,,,0.00,Wunderground v.1.15,2013-07-30 23:50:00,
2013-07-30 20:00:00,73.4,59.6,30.03,West,268,3.0,3.0,62,0.00,,,0.00,Wunderground v.1.15,2013-07-31 00:00:00,
2013-07-30 20:10:00,73.2,58.9,30.03,NW,312,3.0,3.0,61,0.00,,,0.00,Wunderground v.1.15,2013-07-31 00:10:00,
2013-07-30 20:20:00,72.9,58.7,30.02,WNW,298,3.0,4.0,61,0.00,,,0.00,Wunderground v.1.15,2013-07-31 00:20:00,
2013-07-30 20:30:00,72.8,58.6,30.03,NNE,17,3.0,3.0,61,0.00,,,0.00,Wunderground v.1.15,2013-07-31 00:30:00,
2013-07-30 20:40:00,72.8,58.6,30.03,WSW,255,3.0,3.0,61,0.00,,,0.00,Wunderground v.1.15,2013-07-31 00:40:00,
2013-07-30 20:50:00,72.7,58.9,30.02,WNW,297,3.0,3.0,62,0.00,,,0.00,Wunderground v.1.15,2013-07-31 00:50:00,
2013-07-30 21:00:00,72.7,59.4,30.03,West,266,3.0,3.0,63,0.00,,,0.00,Wunderground v.1.15,2013-07-31 01:00:00,
2013-07-30 21:10:00,72.6,59.3,30.03,NNW,330,3.0,3.0,63,0.00,,,0.00,Wunderground v.1.15,2013-07-31 01:10:00,
2013-07-30 21:20:00,72.6,59.7,30.03,NW,312,2.0,2.0,64,0.00,,,0.00,Wunderground v.1.15,2013-07-31 01:20:00,
2013-07-30 21:30:00,72.5,60.1,30.03,NNW,339,3.0,3.0,65,0.00,,,0.00,Wunderground v.1.15,2013-07-31 01:30:00,
2013-07-30 21:40:00,72.4,60.8,30.03,NW,314,3.0,3.0,67,0.00,,,0.00,Wunderground v.1.15,2013-07-31 01:40:00,
2013-07-30 21:50:00,72.2,61.5,30.03,North,357,2.0,3.0,69,0.00,,,0.00,Wunderground v.1.15,2013-07-31 01:50:00,
2013-07-30 22:00:00,72.3,61.6,30.03,North,350,3.0,3.0,69,0.00,,,0.00,Wunderground v.1.15,2013-07-31 02:00:00,
2013-07-30 22:10:00,72.2,62.3,30.03,NNW,331,3.0,4.0,71,0.00,,,0.00,Wunderground v.1.15,2013-07-31 02:10:00,
2013-07-30 22:20:00,72.2,63.1,30.03,WNW,292,3.0,3.0,73,0.00,,,0.00,Wunderground v.1.15,2013-07-31 02:20:00,
2013-07-30 22:30:00,72.1,63.4,30.03,NNW,336,3.0,3.0,74,0.00,,,0.00,Wunderground v.1.15,2013-07-31 02:30:00,
2013-07-30 22:40:00,72.0,62.9,30.03,WNW,301,3.0,3.0,73,0.00,,,0.00,Wunderground v.1.15,2013-07-31 02:40:00,
2013-07-30 22:50:00,72.1,63.0,30.03,NW,318,2.0,2.0,73,0.00,,,0.00,Wunderground v.1.15,2013-07-31 02:50:00,
2013-07-30 23:00:00,71.9,63.2,30.03,NW,318,2.0,3.0,74,0.00,,,0.00,Wunderground v.1.15,2013-07-31 03:00:00,
2013-07-30 23:10:00,71.9,62.4,30.02,NNE,16,2.0,2.0,72,0.00,,,0.00,Wunderground v.1.15,2013-07-31 03:10:00,
2013-07-30 23:20:00,71.7,62.2,30.02,North,352,2.0,2.0,72,0.00,,,0.00,Wunderground v.1.15,2013-07-31 03:20:00,
2013-07-30 23:30:00,71.5,62.4,30.02,WNW,285,2.0,3.0,73,0.00,,,0.00,Wunderground v.1.15,2013-07-31 03:30:00,
2013-07-30 23:40:00,71.2,62.1,30.02,NE,41,2.0,2.0,73,0.00,,,0.00,Wunderground v.1.15,2013-07-31 03:40:00,
2013-07-30 23:50:00,71.2,62.1,30.02,NE,39,2.0,4.0,73,0.00,,,0.00,Wunderground v.1.15,2013-07-31 03:50:00,